createdAt,value
2022-12-23T00:03:46.456Z,0.00
2022-12-23T00:08:45.165Z,0.00
2022-12-23T00:13:45.174Z,0.00
2022-12-23T00:18:45.111Z,0.00
2022-12-23T00:23:45.043Z,0.00
2022-12-23T00:28:44.891Z,0.00
2022-12-23T00:33:45.735Z,0.00
2022-12-23T00:38:44.761Z,0.00
2022-12-23T00:43:47.972Z,0.00
2022-12-23T00:50:01.885Z,0.00
2022-12-23T00:56:19.346Z,0.00
2022-12-23T01:01:19.191Z,0.00
2022-12-23T01:06:19.250Z,0.00
2022-12-23T01:18:29.935Z,0.00
2022-12-23T01:23:29.621Z,0.00
2022-12-23T01:28:29.809Z,0.00
2022-12-23T01:33:29.561Z,0.00
2022-12-23T02:38:52.220Z,0.00
2022-12-23T02:43:52.115Z,0.00
2022-12-23T02:48:52.305Z,0.00
2022-12-23T02:53:51.884Z,0.00
2022-12-23T02:58:51.875Z,0.00
2022-12-23T03:03:51.882Z,0.00
2022-12-23T03:08:51.776Z,0.00
2022-12-23T03:13:51.833Z,0.00
2022-12-23T03:18:51.702Z,0.00
2022-12-23T03:23:55.533Z,0.00
2022-12-23T03:28:54.511Z,0.00
2022-12-23T03:33:51.374Z,0.00
2022-12-23T03:38:51.586Z,0.00
2022-12-23T03:43:51.468Z,0.00
2022-12-23T03:48:56.557Z,0.00
2022-12-23T04:22:49.377Z,0.00
2022-12-23T04:27:49.110Z,0.00
2022-12-23T04:32:49.328Z,0.00
2022-12-23T04:37:49.090Z,0.00
2022-12-23T04:47:02.300Z,0.00
2022-12-23T04:52:02.082Z,0.00
2022-12-23T04:57:01.961Z,0.00
2022-12-23T05:02:01.661Z,0.00
2022-12-23T05:09:39.517Z,0.00
2022-12-23T05:27:17.746Z,0.00
2022-12-23T05:32:17.681Z,0.00
2022-12-23T05:37:17.553Z,0.00
2022-12-23T05:52:08.369Z,0.00
2022-12-23T05:57:07.832Z,0.00
2022-12-23T06:09:47.965Z,0.00
2022-12-23T06:14:47.073Z,0.00
2022-12-23T06:19:47.106Z,0.00
2022-12-23T06:24:46.948Z,0.00
2022-12-23T06:29:46.873Z,0.00
2022-12-23T06:34:48.255Z,0.00
2022-12-23T06:39:46.946Z,0.00
2022-12-23T06:44:46.680Z,0.00
2022-12-23T06:49:47.964Z,0.00
2022-12-23T06:54:46.493Z,0.00
2022-12-23T06:59:49.737Z,0.00
2022-12-23T07:04:46.521Z,0.00
2022-12-23T07:09:46.210Z,5.62
2022-12-23T07:16:04.248Z,5.62
2022-12-23T07:21:03.660Z,11.25
2022-12-23T07:26:03.606Z,16.88
2022-12-23T07:31:03.541Z,22.50
2022-12-23T07:36:03.624Z,28.12
2022-12-23T07:47:14.441Z,45.00
2022-12-23T07:53:31.847Z,45.00
2022-12-23T08:00:15.966Z,56.25
2022-12-23T08:05:15.821Z,61.88
2022-12-23T08:10:15.603Z,67.50
2022-12-23T08:15:15.510Z,78.75
2022-12-23T08:20:15.477Z,90.00
2022-12-23T08:25:15.307Z,112.50
2022-12-23T08:30:15.346Z,129.38
2022-12-23T08:35:16.778Z,118.12
2022-12-23T08:40:15.287Z,129.38
2022-12-23T08:45:15.067Z,118.12
2022-12-23T08:50:18.115Z,151.88
2022-12-23T08:55:14.952Z,151.88
2022-12-23T09:00:14.965Z,202.50
2022-12-23T09:05:14.794Z,157.50
2022-12-23T09:10:14.878Z,151.88
2022-12-23T09:15:14.829Z,191.25
2022-12-23T09:20:14.985Z,146.25
2022-12-23T09:25:14.595Z,129.38
2022-12-23T09:30:14.734Z,180.00
2022-12-23T09:35:14.630Z,174.38
2022-12-23T09:40:24.242Z,185.62
2022-12-23T09:45:14.288Z,202.50
2022-12-23T09:50:17.290Z,236.25
2022-12-23T09:55:14.386Z,196.88
2022-12-23T10:00:23.312Z,230.62
2022-12-23T10:07:05.012Z,253.12
2022-12-23T10:12:04.856Z,264.38
2022-12-23T10:19:30.437Z,236.25
2022-12-23T10:26:09.834Z,225.00
2022-12-23T10:31:39.896Z,146.25
2022-12-23T10:36:10.599Z,106.88
2022-12-23T10:41:09.966Z,101.25
2022-12-23T10:48:14.232Z,123.75
2022-12-23T11:01:37.879Z,123.75
2022-12-23T11:06:37.947Z,185.62
2022-12-23T11:11:37.268Z,219.38
2022-12-23T11:16:37.293Z,236.25
2022-12-23T11:21:37.314Z,253.12
2022-12-23T11:26:37.036Z,258.75
2022-12-23T11:31:37.099Z,247.50
2022-12-23T11:36:36.969Z,219.38
2022-12-23T11:41:36.886Z,208.12
2022-12-23T11:46:37.012Z,213.75
2022-12-23T11:51:41.354Z,230.62
2022-12-23T11:56:36.732Z,247.50
2022-12-23T12:01:36.720Z,225.00
2022-12-23T12:06:36.470Z,196.88
2022-12-23T12:11:36.460Z,208.12
2022-12-23T12:16:36.389Z,202.50
2022-12-23T12:21:36.351Z,180.00
2022-12-23T12:26:36.196Z,174.38
2022-12-23T12:31:37.706Z,151.88
2022-12-23T12:36:36.132Z,140.62
2022-12-23T12:41:36.133Z,118.12
2022-12-23T12:46:36.916Z,84.38
2022-12-23T12:51:38.861Z,101.25
2022-12-23T12:56:36.747Z,123.75
2022-12-23T13:01:36.163Z,123.75
2022-12-23T13:06:36.666Z,140.62
2022-12-23T13:11:36.056Z,163.12
2022-12-23T13:16:36.441Z,135.00
2022-12-23T13:21:36.569Z,135.00
2022-12-23T13:26:35.424Z,123.75
2022-12-23T13:31:35.546Z,118.12
2022-12-23T13:36:35.281Z,101.25
2022-12-23T13:41:36.474Z,78.75
2022-12-23T13:46:35.225Z,73.12
2022-12-23T13:51:38.104Z,84.38
2022-12-23T13:56:35.041Z,73.12
2022-12-23T14:01:35.069Z,61.88
2022-12-23T14:06:34.929Z,50.62
2022-12-23T14:11:35.140Z,39.38
2022-12-23T14:16:34.812Z,28.12
2022-12-23T14:21:34.710Z,16.88
2022-12-23T14:26:34.681Z,16.88
2022-12-23T14:31:34.762Z,16.88
2022-12-23T14:36:34.606Z,11.25
2022-12-23T14:41:34.476Z,11.25
2022-12-23T14:46:34.537Z,5.62
2022-12-23T14:51:37.490Z,11.25
2022-12-23T14:56:34.375Z,5.62
2022-12-23T15:01:34.287Z,5.62
2022-12-23T15:06:34.133Z,0.00
2022-12-23T15:11:34.381Z,0.00
2022-12-23T15:16:34.066Z,0.00
2022-12-23T15:21:34.034Z,0.00
2022-12-23T15:26:33.951Z,0.00
2022-12-23T15:31:33.838Z,0.00
2022-12-23T15:36:33.854Z,0.00
2022-12-23T15:41:33.776Z,0.00
2022-12-23T15:46:33.975Z,0.00
2022-12-23T15:52:05.954Z,0.00
2022-12-23T15:56:34.760Z,0.00
2022-12-23T16:01:33.707Z,0.00
2022-12-23T16:06:33.431Z,0.00
2022-12-23T16:11:33.356Z,0.00
2022-12-23T16:18:23.435Z,0.00
2022-12-23T16:29:23.567Z,0.00
2022-12-23T16:43:00.252Z,0.00
2022-12-23T16:47:59.221Z,0.00
2022-12-23T16:52:59.014Z,0.00
2022-12-23T16:57:58.763Z,0.00
2022-12-23T17:02:58.691Z,0.00
2022-12-23T17:07:58.878Z,0.00
2022-12-23T17:13:16.619Z,0.00
2022-12-23T17:23:37.770Z,0.00
2022-12-23T17:29:54.930Z,0.00
2022-12-23T17:55:35.306Z,0.00
2022-12-23T20:50:50.317Z,0.00
2022-12-23T20:55:49.711Z,0.00
2022-12-23T21:00:54.120Z,0.00
2022-12-23T22:51:39.719Z,0.00
2022-12-23T22:56:38.465Z,0.00
2022-12-23T23:01:38.524Z,0.00
2022-12-23T23:09:09.917Z,0.00
2022-12-23T23:14:09.572Z,0.00
2022-12-23T23:19:17.710Z,0.00
2022-12-23T23:26:11.771Z,0.00
2022-12-23T23:36:12.279Z,0.00
2022-12-23T23:41:11.178Z,0.00
2022-12-23T23:46:11.245Z,0.00
2022-12-23T23:51:10.890Z,0.00
2022-12-23T23:56:11.529Z,0.00
